createdAt,value
2018-07-11T00:00:36.474Z,6.00
2018-07-11T00:01:37.185Z,6.00
2018-07-11T00:02:37.898Z,6.00
2018-07-11T00:03:38.611Z,5.00
2018-07-11T00:04:39.322Z,8.00
2018-07-11T00:05:40.036Z,6.00
2018-07-11T00:06:40.759Z,7.00
2018-07-11T00:07:41.472Z,6.00
2018-07-11T00:08:42.184Z,6.00
2018-07-11T00:09:42.898Z,8.00
2018-07-11T00:10:43.611Z,7.00
2018-07-11T00:11:44.339Z,8.00
2018-07-11T00:12:45.067Z,8.00
2018-07-11T00:13:45.781Z,10.00
2018-07-11T00:14:46.493Z,6.00
2018-07-11T00:15:47.208Z,8.00
2018-07-11T00:16:47.918Z,7.00
2018-07-11T00:17:48.632Z,7.00
2018-07-11T00:18:49.347Z,7.00
2018-07-11T00:19:50.076Z,6.00
2018-07-11T00:20:50.788Z,6.00
2018-07-11T00:21:51.502Z,6.00
2018-07-11T00:22:52.229Z,6.00
2018-07-11T00:23:52.942Z,7.00
2018-07-11T00:24:53.655Z,7.00
2018-07-11T00:25:54.376Z,6.00
2018-07-11T00:26:55.082Z,8.00
2018-07-11T00:27:55.809Z,6.00
2018-07-11T00:28:56.524Z,6.00
2018-07-11T00:29:57.244Z,8.00
2018-07-11T00:30:57.964Z,7.00
2018-07-11T00:31:58.679Z,6.00
2018-07-11T00:32:59.391Z,7.00
2018-07-11T00:34:00.106Z,8.00
2018-07-11T00:35:00.817Z,7.00
2018-07-11T00:36:01.546Z,6.00
2018-07-11T00:37:02.287Z,6.00
2018-07-11T00:38:02.974Z,7.00
2018-07-11T00:39:03.687Z,7.00
2018-07-11T00:40:04.413Z,6.00
2018-07-11T00:41:05.126Z,7.00
2018-07-11T00:42:05.853Z,7.00
2018-07-11T00:43:06.568Z,6.00
2018-07-11T00:44:07.283Z,7.00
2018-07-11T00:45:07.996Z,7.00
2018-07-11T00:46:08.710Z,8.00
2018-07-11T00:47:09.420Z,8.00
2018-07-11T00:48:10.132Z,6.00
2018-07-11T00:49:10.842Z,7.00
2018-07-11T00:50:11.558Z,8.00
2018-07-11T00:51:12.282Z,7.00
2018-07-11T00:52:12.992Z,7.00
2018-07-11T00:53:13.717Z,8.00
2018-07-11T00:54:14.441Z,7.00
2018-07-11T00:55:15.168Z,6.00
2018-07-11T00:56:15.875Z,6.00
2018-07-11T00:57:16.585Z,6.00
2018-07-11T00:58:17.298Z,6.00
2018-07-11T00:59:18.006Z,9.00
2018-07-11T01:00:18.720Z,8.00
2018-07-11T01:01:19.430Z,8.00
2018-07-11T01:02:20.143Z,7.00
2018-07-11T01:03:20.868Z,6.00
2018-07-11T01:04:21.579Z,6.00
2018-07-11T01:05:22.291Z,6.00
2018-07-11T01:06:23.005Z,7.00
2018-07-11T01:07:23.716Z,7.00
2018-07-11T01:08:24.427Z,7.00
2018-07-11T01:09:25.140Z,9.00
2018-07-11T01:10:25.851Z,7.00
2018-07-11T01:11:26.563Z,7.00
2018-07-11T01:12:27.274Z,8.00
2018-07-11T01:13:27.985Z,8.00
2018-07-11T01:14:28.700Z,7.00
2018-07-11T01:15:29.424Z,6.00
2018-07-11T01:16:30.137Z,7.00
2018-07-11T01:17:30.862Z,6.00
2018-07-11T01:18:31.573Z,7.00
2018-07-11T01:19:32.283Z,6.00
2018-07-11T01:20:32.995Z,6.00
2018-07-11T01:21:33.720Z,8.00
2018-07-11T01:22:34.449Z,8.00
2018-07-11T01:23:35.170Z,8.00
2018-07-11T01:24:35.897Z,9.00
2018-07-11T01:25:36.610Z,9.00
2018-07-11T01:26:37.322Z,8.00
2018-07-11T01:27:38.034Z,6.00
2018-07-11T01:28:38.747Z,8.00
2018-07-11T01:29:39.469Z,9.00
2018-07-11T01:30:40.179Z,8.00
2018-07-11T01:31:40.892Z,9.00
2018-07-11T01:32:41.603Z,8.00
2018-07-11T01:33:42.315Z,7.00
2018-07-11T01:34:43.027Z,9.00
2018-07-11T01:35:43.739Z,8.00
2018-07-11T01:36:44.456Z,9.00
2018-07-11T01:37:45.163Z,9.00
2018-07-11T01:38:45.874Z,9.00
2018-07-11T01:39:46.584Z,7.00
2018-07-11T01:40:47.297Z,7.00
2018-07-11T01:41:48.027Z,10.00
2018-07-11T01:42:48.749Z,7.00
2018-07-11T01:43:49.474Z,10.00
2018-07-11T01:44:50.200Z,8.00
2018-07-11T01:45:50.949Z,9.00
2018-07-11T01:46:51.635Z,9.00
2018-07-11T01:47:52.351Z,8.00
2018-07-11T01:48:53.058Z,8.00
2018-07-11T01:49:53.782Z,8.00
2018-07-11T01:50:54.497Z,7.00
2018-07-11T01:51:55.206Z,8.00
2018-07-11T01:52:55.923Z,8.00
2018-07-11T01:53:56.642Z,9.00
2018-07-11T01:54:57.356Z,9.00
2018-07-11T01:55:58.069Z,6.00
2018-07-11T01:56:58.784Z,8.00
2018-07-11T01:57:59.496Z,8.00
2018-07-11T01:59:00.220Z,7.00
2018-07-11T02:00:00.934Z,8.00
2018-07-11T02:01:01.658Z,9.00
2018-07-11T02:02:02.367Z,8.00
2018-07-11T02:03:03.078Z,8.00
2018-07-11T02:04:03.803Z,7.00
2018-07-11T02:05:04.516Z,9.00
2018-07-11T02:06:05.230Z,8.00
2018-07-11T02:07:05.944Z,8.00
2018-07-11T02:08:06.655Z,8.00
2018-07-11T02:09:07.368Z,9.00
2018-07-11T02:10:08.084Z,8.00
2018-07-11T02:11:08.803Z,9.00
2018-07-11T02:12:09.518Z,10.00
2018-07-11T02:13:10.232Z,8.00
2018-07-11T02:14:10.943Z,7.00
2018-07-11T02:15:11.660Z,7.00
2018-07-11T02:16:12.369Z,8.00
2018-07-11T02:17:13.079Z,9.00
2018-07-11T02:18:13.791Z,9.00
2018-07-11T02:19:14.500Z,7.00
2018-07-11T02:20:15.225Z,9.00
2018-07-11T02:21:15.938Z,8.00
2018-07-11T02:22:16.664Z,9.00
2018-07-11T02:23:17.378Z,8.00
2018-07-11T02:24:18.101Z,9.00
2018-07-11T02:25:18.827Z,8.00
2018-07-11T02:26:19.540Z,7.00
2018-07-11T02:27:20.252Z,8.00
2018-07-11T02:28:20.966Z,7.00
2018-07-11T02:29:21.683Z,8.00
2018-07-11T02:30:22.405Z,9.00
2018-07-11T02:31:23.122Z,8.00
2018-07-11T02:32:23.829Z,9.00
2018-07-11T02:33:24.541Z,8.00
2018-07-11T02:34:25.272Z,11.00
2018-07-11T02:35:25.978Z,9.00
2018-07-11T02:36:26.702Z,8.00
2018-07-11T02:37:27.414Z,7.00
2018-07-11T02:38:28.129Z,10.00
2018-07-11T02:39:28.841Z,9.00
2018-07-11T02:40:29.554Z,10.00
2018-07-11T02:41:30.269Z,9.00
2018-07-11T02:42:30.985Z,10.00
2018-07-11T02:43:31.696Z,7.00
2018-07-11T02:44:32.403Z,9.00
2018-07-11T02:45:33.125Z,9.00
2018-07-11T02:46:33.860Z,8.00
2018-07-11T02:47:34.578Z,9.00
2018-07-11T02:48:35.291Z,9.00
2018-07-11T02:49:35.999Z,8.00
2018-07-11T02:50:36.714Z,7.00
2018-07-11T02:51:37.439Z,10.00
2018-07-11T02:52:38.148Z,8.00
2018-07-11T02:53:38.861Z,9.00
2018-07-11T02:54:39.569Z,9.00
2018-07-11T02:55:40.282Z,10.00
2018-07-11T02:56:40.994Z,10.00
2018-07-11T02:57:41.705Z,9.00
2018-07-11T02:58:42.419Z,10.00
2018-07-11T02:59:43.130Z,8.00
2018-07-11T03:00:43.841Z,9.00
2018-07-11T03:01:44.554Z,10.00
2018-07-11T03:02:45.267Z,9.00
2018-07-11T03:03:45.978Z,9.00
2018-07-11T03:04:46.691Z,7.00
2018-07-11T03:05:47.401Z,9.00
2018-07-11T03:06:48.130Z,11.00
2018-07-11T03:07:48.841Z,8.00
2018-07-11T03:08:49.565Z,9.00
2018-07-11T03:09:50.286Z,12.00
2018-07-11T03:10:51.009Z,9.00
2018-07-11T03:11:51.735Z,9.00
2018-07-11T03:12:52.448Z,11.00
2018-07-11T03:13:53.166Z,10.00
2018-07-11T03:14:53.887Z,10.00
2018-07-11T03:15:54.630Z,10.00
2018-07-11T03:16:55.328Z,11.00
2018-07-11T03:17:56.040Z,13.00
2018-07-11T03:18:56.767Z,10.00
2018-07-11T03:19:57.496Z,12.00
2018-07-11T03:20:58.215Z,11.00
2018-07-11T03:21:58.926Z,13.00
2018-07-11T03:22:59.642Z,11.00
2018-07-11T03:24:00.367Z,12.00
2018-07-11T03:25:01.083Z,10.00
2018-07-11T03:26:01.811Z,10.00
2018-07-11T03:27:02.525Z,10.00
2018-07-11T03:28:03.241Z,10.00
2018-07-11T03:29:03.959Z,11.00
2018-07-11T03:30:04.684Z,11.00
2018-07-11T03:31:05.397Z,11.00
2018-07-11T03:32:06.120Z,11.00
2018-07-11T03:33:06.841Z,10.00
2018-07-11T03:34:07.557Z,10.00
2018-07-11T03:35:08.273Z,11.00
2018-07-11T03:36:08.989Z,10.00
2018-07-11T03:37:09.703Z,13.00
2018-07-11T03:38:10.420Z,12.00
2018-07-11T03:39:11.136Z,11.00
2018-07-11T03:40:11.869Z,10.00
2018-07-11T03:41:12.582Z,10.00
2018-07-11T03:42:13.296Z,10.00
2018-07-11T03:43:14.012Z,10.00
2018-07-11T03:44:14.730Z,10.00
2018-07-11T03:45:15.446Z,10.00
2018-07-11T03:46:16.161Z,11.00
2018-07-11T03:47:16.878Z,10.00
2018-07-11T03:48:17.593Z,11.00
2018-07-11T03:49:18.309Z,11.00
2018-07-11T03:50:19.022Z,9.00
2018-07-11T03:51:19.752Z,11.00
2018-07-11T03:52:20.469Z,11.00
2018-07-11T03:53:21.184Z,10.00
2018-07-11T03:54:21.898Z,9.00
2018-07-11T03:55:22.613Z,10.00
2018-07-11T03:56:23.342Z,11.00
2018-07-11T03:57:24.056Z,9.00
2018-07-11T03:58:24.774Z,12.00
2018-07-11T03:59:25.490Z,8.00
2018-07-11T04:00:26.220Z,11.00
2018-07-11T04:01:26.943Z,11.00
2018-07-11T04:02:27.652Z,10.00
2018-07-11T04:03:28.368Z,10.00
2018-07-11T04:04:29.100Z,11.00
2018-07-11T04:05:29.819Z,10.00
2018-07-11T04:06:30.548Z,11.00
2018-07-11T04:07:31.278Z,14.00
2018-07-11T04:08:31.992Z,11.00
2018-07-11T04:09:32.710Z,13.00
2018-07-11T04:10:33.427Z,11.00
2018-07-11T04:11:34.157Z,10.00
2018-07-11T04:12:34.886Z,9.00
2018-07-11T04:13:35.598Z,10.00
2018-07-11T04:14:36.328Z,10.00
2018-07-11T04:15:37.044Z,10.00
2018-07-11T04:16:37.761Z,10.00
2018-07-11T04:17:38.476Z,8.00
2018-07-11T04:18:39.192Z,10.00
2018-07-11T04:19:39.908Z,10.00
2018-07-11T04:20:40.625Z,10.00
2018-07-11T04:21:41.343Z,10.00
2018-07-11T04:22:42.060Z,8.00
2018-07-11T04:23:42.775Z,12.00
2018-07-11T04:24:43.506Z,11.00
2018-07-11T04:25:44.224Z,9.00
2018-07-11T04:26:44.939Z,10.00
2018-07-11T04:27:45.659Z,10.00
2018-07-11T04:28:46.435Z,10.00
2018-07-11T04:29:47.103Z,7.00
2018-07-11T04:30:47.820Z,9.00
2018-07-11T04:31:48.535Z,9.00
2018-07-11T04:32:49.252Z,8.00
2018-07-11T04:33:49.969Z,11.00
2018-07-11T04:34:50.686Z,10.00
2018-07-11T04:35:51.401Z,8.00
2018-07-11T04:36:52.131Z,10.00
2018-07-11T04:37:52.861Z,8.00
2018-07-11T04:38:53.577Z,9.00
2018-07-11T04:39:54.294Z,7.00
2018-07-11T04:40:55.010Z,9.00
2018-07-11T04:41:55.725Z,10.00
2018-07-11T04:42:56.442Z,7.00
2018-07-11T04:43:57.159Z,10.00
2018-07-11T04:44:57.877Z,10.00
2018-07-11T04:45:58.592Z,8.00
2018-07-11T04:46:59.308Z,10.00
2018-07-11T04:48:00.025Z,9.00
2018-07-11T04:49:00.753Z,10.00
2018-07-11T04:50:01.472Z,9.00
2018-07-11T04:51:02.201Z,8.00
2018-07-11T04:52:02.920Z,9.00
2018-07-11T04:53:03.652Z,10.00
2018-07-11T04:54:04.381Z,9.00
2018-07-11T04:55:05.095Z,9.00
2018-07-11T04:56:05.810Z,8.00
2018-07-11T04:57:06.542Z,11.00
2018-07-11T04:58:07.258Z,10.00
2018-07-11T04:59:07.974Z,9.00
2018-07-11T05:00:08.692Z,10.00
2018-07-11T05:01:09.410Z,8.00
2018-07-11T05:02:10.141Z,9.00
2018-07-11T05:03:10.857Z,9.00
2018-07-11T05:04:11.574Z,8.00
2018-07-11T05:05:12.288Z,7.00
2018-07-11T05:06:13.007Z,8.00
2018-07-11T05:07:13.734Z,9.00
2018-07-11T05:08:14.466Z,10.00
2018-07-11T05:09:15.195Z,8.00
2018-07-11T05:10:15.927Z,8.00
2018-07-11T05:11:16.767Z,10.00
2018-07-11T05:12:17.370Z,8.00
2018-07-11T05:13:18.087Z,8.00
2018-07-11T05:14:18.805Z,9.00
2018-07-11T05:15:19.536Z,10.00
2018-07-11T05:16:20.283Z,7.00
2018-07-11T05:17:20.978Z,9.00
2018-07-11T05:18:21.694Z,8.00
2018-07-11T05:19:22.411Z,8.00
2018-07-11T05:20:23.126Z,8.00
2018-07-11T05:21:23.854Z,11.00
2018-07-11T05:22:24.575Z,10.00
2018-07-11T05:23:25.293Z,12.00
2018-07-11T05:24:26.010Z,9.00
2018-07-11T05:25:26.723Z,8.00
2018-07-11T05:26:27.452Z,9.00
2018-07-11T05:27:28.168Z,8.00
2018-07-11T05:28:28.885Z,9.00
2018-07-11T05:29:29.617Z,10.00
2018-07-11T05:30:30.333Z,8.00
2018-07-11T05:31:31.051Z,10.00
2018-07-11T05:32:31.781Z,8.00
2018-07-11T05:33:32.499Z,9.00
2018-07-11T05:34:33.227Z,8.00
2018-07-11T05:35:33.943Z,9.00
2018-07-11T05:36:34.661Z,9.00
2018-07-11T05:37:35.377Z,12.00
2018-07-11T05:38:36.093Z,8.00
2018-07-11T05:39:36.810Z,9.00
2018-07-11T05:40:37.532Z,8.00
2018-07-11T05:41:38.249Z,8.00
2018-07-11T05:42:38.963Z,8.00
2018-07-11T05:43:39.683Z,11.00
2018-07-11T05:44:40.399Z,9.00
2018-07-11T05:45:41.116Z,9.00
2018-07-11T05:46:41.837Z,9.00
2018-07-11T05:47:42.554Z,8.00
2018-07-11T05:48:43.275Z,10.00
2018-07-11T05:49:44.004Z,7.00
2018-07-11T05:50:44.721Z,8.00
2018-07-11T05:51:45.453Z,8.00
2018-07-11T05:52:46.170Z,7.00
2018-07-11T05:53:46.886Z,9.00
2018-07-11T05:54:47.614Z,7.00
2018-07-11T05:55:48.385Z,7.00
2018-07-11T05:56:49.078Z,8.00
2018-07-11T05:57:49.798Z,7.00
2018-07-11T05:58:50.515Z,11.00
2018-07-11T05:59:51.244Z,8.00
2018-07-11T06:00:51.968Z,8.00
2018-07-11T06:01:52.685Z,9.00
2018-07-11T06:02:53.405Z,10.00
2018-07-11T06:03:54.123Z,8.00
2018-07-11T06:04:54.844Z,7.00
2018-07-11T06:05:55.564Z,7.00
2018-07-11T06:06:56.293Z,7.00
2018-07-11T06:07:57.011Z,9.00
2018-07-11T06:08:57.730Z,9.00
2018-07-11T06:09:58.450Z,9.00
2018-07-11T06:10:59.167Z,7.00
2018-07-11T06:11:59.884Z,8.00
2018-07-11T06:13:00.601Z,7.00
2018-07-11T06:14:01.323Z,8.00
2018-07-11T06:15:02.056Z,8.00
2018-07-11T06:16:02.775Z,8.00
2018-07-11T06:17:03.492Z,6.00
2018-07-11T06:18:04.211Z,8.00
2018-07-11T06:19:04.943Z,8.00
2018-07-11T06:20:05.675Z,9.00
2018-07-11T06:21:06.406Z,8.00
2018-07-11T06:22:07.140Z,7.00
2018-07-11T06:23:07.858Z,7.00
2018-07-11T06:24:08.577Z,8.00
2018-07-11T06:25:09.296Z,9.00
2018-07-11T06:26:10.020Z,10.00
2018-07-11T06:27:10.737Z,9.00
2018-07-11T06:28:11.460Z,7.00
2018-07-11T06:29:12.181Z,8.00
2018-07-11T06:30:12.900Z,8.00
2018-07-11T06:31:13.620Z,9.00
2018-07-11T06:32:14.344Z,8.00
2018-07-11T06:33:15.058Z,9.00
2018-07-11T06:34:15.793Z,8.00
2018-07-11T06:35:16.525Z,8.00
2018-07-11T06:36:17.258Z,8.00
2018-07-11T06:37:17.985Z,7.00
2018-07-11T06:38:18.712Z,8.00
2018-07-11T06:39:19.470Z,8.00
2018-07-11T06:40:20.151Z,7.00
2018-07-11T06:41:20.885Z,9.00
2018-07-11T06:42:21.604Z,9.00
2018-07-11T06:43:22.324Z,9.00
2018-07-11T06:44:23.093Z,10.00
2018-07-11T06:45:23.782Z,7.00
2018-07-11T06:46:24.501Z,8.00
2018-07-11T06:47:25.221Z,7.00
2018-07-11T06:48:25.947Z,7.00
2018-07-11T06:49:26.666Z,10.00
2018-07-11T06:50:27.387Z,9.00
2018-07-11T06:51:28.122Z,8.00
2018-07-11T06:52:28.844Z,8.00
2018-07-11T06:53:29.583Z,9.00
2018-07-11T06:54:30.305Z,7.00
2018-07-11T06:55:31.026Z,8.00
2018-07-11T06:56:31.751Z,10.00
2018-07-11T06:57:32.516Z,8.00
2018-07-11T06:58:33.191Z,7.00
2018-07-11T06:59:33.916Z,9.00
2018-07-11T07:00:34.637Z,7.00
2018-07-11T07:01:35.358Z,9.00
2018-07-11T07:02:36.079Z,9.00
2018-07-11T07:03:36.880Z,8.00
2018-07-11T07:04:37.529Z,8.00
2018-07-11T07:05:38.256Z,8.00
2018-07-11T07:06:38.991Z,7.00
2018-07-11T07:07:39.713Z,8.00
2018-07-11T07:08:40.437Z,10.00
2018-07-11T07:09:41.172Z,7.00
2018-07-11T07:10:41.897Z,8.00
2018-07-11T07:11:42.635Z,9.00
2018-07-11T07:12:43.357Z,9.00
2018-07-11T07:13:44.080Z,9.00
2018-07-11T07:14:44.802Z,8.00
2018-07-11T07:15:45.527Z,7.00
2018-07-11T07:16:46.251Z,7.00
2018-07-11T07:17:46.973Z,7.00
2018-07-11T07:18:47.701Z,9.00
2018-07-11T07:19:48.422Z,7.00
2018-07-11T07:20:49.148Z,10.00
2018-07-11T07:21:49.886Z,7.00
2018-07-11T07:22:50.622Z,8.00
2018-07-11T07:23:51.345Z,8.00
2018-07-11T07:24:52.070Z,9.00
2018-07-11T07:25:52.794Z,9.00
2018-07-11T07:26:53.519Z,8.00
2018-07-11T07:27:54.256Z,7.00
2018-07-11T07:28:54.986Z,9.00
2018-07-11T07:29:55.703Z,8.00
2018-07-11T07:30:56.427Z,9.00
2018-07-11T07:31:57.152Z,8.00
2018-07-11T07:32:57.882Z,9.00
2018-07-11T07:33:58.603Z,9.00
2018-07-11T07:34:59.355Z,8.00
2018-07-11T07:36:00.063Z,8.00
2018-07-11T07:37:00.798Z,8.00
2018-07-11T07:38:01.522Z,8.00
2018-07-11T07:39:02.251Z,8.00
2018-07-11T07:40:02.983Z,7.00
2018-07-11T07:41:03.708Z,7.00
2018-07-11T07:42:04.428Z,8.00
2018-07-11T07:43:05.165Z,8.00
2018-07-11T07:44:05.887Z,7.00
2018-07-11T07:45:06.610Z,8.00
2018-07-11T07:46:07.347Z,7.00
2018-07-11T07:47:08.094Z,7.00
2018-07-11T07:48:08.793Z,6.00
2018-07-11T07:49:09.516Z,10.00
2018-07-11T07:50:10.240Z,9.00
2018-07-11T07:51:10.962Z,7.00
2018-07-11T07:52:11.683Z,7.00
2018-07-11T07:53:12.420Z,10.00
2018-07-11T07:54:13.142Z,8.00
2018-07-11T07:55:13.865Z,7.00
2018-07-11T07:56:14.602Z,7.00
2018-07-11T07:57:15.325Z,8.00
2018-07-11T07:58:16.047Z,8.00
2018-07-11T07:59:16.780Z,8.00
2018-07-11T08:00:17.504Z,7.00
2018-07-11T08:01:18.226Z,9.00
2018-07-11T08:02:18.951Z,9.00
2018-07-11T08:03:19.673Z,8.00
2018-07-11T08:04:20.396Z,7.00
2018-07-11T08:05:21.120Z,8.00
2018-07-11T08:06:21.844Z,6.00
2018-07-11T08:07:22.569Z,9.00
2018-07-11T08:08:23.292Z,8.00
2018-07-11T08:09:24.017Z,9.00
2018-07-11T08:10:24.742Z,6.00
2018-07-11T08:11:25.464Z,7.00
2018-07-11T08:12:26.186Z,9.00
2018-07-11T08:13:26.910Z,8.00
2018-07-11T08:14:27.635Z,7.00
2018-07-11T08:15:28.360Z,9.00
2018-07-11T08:16:29.081Z,8.00
2018-07-11T08:17:29.805Z,7.00
2018-07-11T08:18:30.543Z,8.00
2018-07-11T08:19:31.268Z,8.00
2018-07-11T08:20:31.991Z,8.00
2018-07-11T08:21:32.748Z,9.00
2018-07-11T08:22:33.441Z,7.00
2018-07-11T08:23:34.179Z,10.00
2018-07-11T08:24:34.904Z,8.00
2018-07-11T08:25:35.644Z,9.00
2018-07-11T08:26:36.369Z,8.00
2018-07-11T08:27:37.105Z,7.00
2018-07-11T08:28:37.831Z,7.00
2018-07-11T08:29:38.557Z,8.00
2018-07-11T08:30:39.282Z,8.00
2018-07-11T08:31:40.007Z,8.00
2018-07-11T08:32:40.732Z,7.00
2018-07-11T08:33:41.457Z,9.00
2018-07-11T08:34:42.231Z,7.00
2018-07-11T08:35:42.909Z,8.00
2018-07-11T08:36:43.632Z,7.00
2018-07-11T08:37:44.355Z,7.00
2018-07-11T08:38:45.093Z,9.00
2018-07-11T08:39:45.818Z,9.00
2018-07-11T08:40:46.541Z,7.00
2018-07-11T08:41:47.263Z,7.00
2018-07-11T08:42:47.986Z,12.00
2018-07-11T08:43:48.711Z,10.00
2018-07-11T08:44:49.453Z,8.00
2018-07-11T08:45:50.173Z,9.00
2018-07-11T08:46:50.908Z,8.00
2018-07-11T08:47:51.711Z,8.00
2018-07-11T08:48:52.356Z,6.00
2018-07-11T08:49:53.079Z,7.00
2018-07-11T08:50:53.802Z,9.00
2018-07-11T08:51:54.522Z,7.00
2018-07-11T08:52:55.245Z,8.00
2018-07-11T08:53:55.971Z,7.00
2018-07-11T08:54:56.689Z,6.00
2018-07-11T08:55:57.424Z,8.00
2018-07-11T08:56:58.144Z,7.00
2018-07-11T08:57:58.866Z,7.00
2018-07-11T08:58:59.589Z,8.00
2018-07-11T09:00:00.310Z,7.00
2018-07-11T09:01:01.032Z,10.00
2018-07-11T09:02:01.753Z,8.00
2018-07-11T09:03:02.475Z,8.00
2018-07-11T09:04:03.212Z,7.00
2018-07-11T09:05:03.949Z,10.00
2018-07-11T09:06:04.668Z,7.00
2018-07-11T09:07:05.387Z,7.00
2018-07-11T09:08:06.113Z,8.00
2018-07-11T09:09:06.829Z,9.00
2018-07-11T09:10:07.552Z,10.00
2018-07-11T09:11:08.287Z,9.00
2018-07-11T09:12:09.039Z,10.00
2018-07-11T09:13:09.742Z,8.00
2018-07-11T09:14:10.460Z,7.00
2018-07-11T09:15:11.180Z,8.00
2018-07-11T09:16:11.914Z,7.00
2018-07-11T09:17:12.636Z,8.00
2018-07-11T09:18:13.351Z,6.00
2018-07-11T09:19:14.071Z,8.00
2018-07-11T09:20:14.791Z,6.00
2018-07-11T09:21:15.512Z,10.00
2018-07-11T09:22:16.234Z,8.00
2018-07-11T09:23:16.956Z,8.00
2018-07-11T09:24:17.731Z,8.00
2018-07-11T09:25:18.398Z,8.00
2018-07-11T09:26:19.118Z,8.00
2018-07-11T09:27:19.841Z,8.00
2018-07-11T09:28:20.558Z,8.00
2018-07-11T09:29:21.279Z,8.00
2018-07-11T09:30:22.004Z,6.00
2018-07-11T09:31:22.723Z,8.00
2018-07-11T09:32:23.449Z,8.00
2018-07-11T09:33:24.163Z,8.00
2018-07-11T09:34:24.886Z,7.00
2018-07-11T09:35:25.620Z,7.00
2018-07-11T09:36:26.343Z,8.00
2018-07-11T09:37:27.097Z,7.00
2018-07-11T09:38:27.788Z,6.00
2018-07-11T09:39:28.523Z,7.00
2018-07-11T09:40:29.253Z,10.00
2018-07-11T09:41:29.984Z,7.00
2018-07-11T09:42:30.711Z,7.00
2018-07-11T09:43:31.433Z,8.00
2018-07-11T09:44:32.158Z,7.00
2018-07-11T09:45:32.954Z,7.00
2018-07-11T09:46:33.613Z,6.00
2018-07-11T09:47:34.336Z,7.00
2018-07-11T09:48:35.059Z,6.00
2018-07-11T09:49:35.783Z,5.00
2018-07-11T09:50:36.507Z,6.00
2018-07-11T09:51:37.244Z,5.00
2018-07-11T09:52:37.966Z,5.00
2018-07-11T09:53:38.689Z,6.00
2018-07-11T09:54:39.415Z,8.00
2018-07-11T09:55:40.140Z,9.00
2018-07-11T09:56:40.879Z,7.00
2018-07-11T09:57:41.666Z,8.00
2018-07-11T09:58:42.342Z,6.00
2018-07-11T09:59:43.058Z,7.00
2018-07-11T10:00:43.781Z,7.00
2018-07-11T10:01:44.509Z,6.00
2018-07-11T10:02:45.230Z,6.00
2018-07-11T10:03:45.952Z,6.00
2018-07-11T10:04:46.675Z,5.00
2018-07-11T10:05:47.412Z,5.00
2018-07-11T10:06:48.148Z,8.00
2018-07-11T10:07:48.883Z,6.00
2018-07-11T10:08:49.607Z,8.00
2018-07-11T10:09:50.344Z,6.00
2018-07-11T10:10:51.068Z,6.00
2018-07-11T10:11:51.862Z,5.00
2018-07-11T10:12:52.512Z,6.00
2018-07-11T10:13:53.237Z,5.00
2018-07-11T10:14:53.972Z,5.00
2018-07-11T10:15:54.696Z,6.00
2018-07-11T10:16:55.428Z,5.00
2018-07-11T10:17:56.150Z,6.00
2018-07-11T10:18:56.886Z,5.00
2018-07-11T10:19:57.621Z,6.00
2018-07-11T10:20:58.344Z,5.00
2018-07-11T10:21:59.064Z,6.00
2018-07-11T10:22:59.788Z,5.00
2018-07-11T10:24:00.520Z,5.00
2018-07-11T10:25:01.244Z,5.00
2018-07-11T10:26:01.965Z,5.00
2018-07-11T10:27:02.686Z,6.00
2018-07-11T10:28:03.424Z,6.00
2018-07-11T10:29:04.146Z,6.00
2018-07-11T10:30:04.884Z,6.00
2018-07-11T10:31:05.603Z,6.00
2018-07-11T10:32:06.327Z,6.00
2018-07-11T10:33:07.048Z,6.00
2018-07-11T10:34:07.770Z,5.00
2018-07-11T10:35:08.501Z,5.00
2018-07-11T10:36:09.222Z,7.00
2018-07-11T10:37:09.944Z,6.00
2018-07-11T10:38:10.669Z,6.00
2018-07-11T10:39:11.483Z,6.00
2018-07-11T10:40:12.120Z,6.00
2018-07-11T10:41:12.842Z,7.00
2018-07-11T10:42:13.562Z,6.00
2018-07-11T10:43:14.284Z,8.00
2018-07-11T10:44:15.007Z,7.00
2018-07-11T10:45:15.729Z,9.00
2018-07-11T10:46:16.452Z,7.00
2018-07-11T10:47:17.172Z,6.00
2018-07-11T10:48:17.894Z,7.00
2018-07-11T10:49:18.624Z,8.00
2018-07-11T10:50:19.356Z,8.00
2018-07-11T10:51:20.081Z,8.00
2018-07-11T10:52:20.806Z,9.00
2018-07-11T10:53:21.530Z,10.00
2018-07-11T10:54:22.255Z,9.00
2018-07-11T10:55:22.980Z,7.00
2018-07-11T10:56:23.704Z,8.00
2018-07-11T10:57:24.435Z,10.00
2018-07-11T10:58:25.149Z,9.00
2018-07-11T10:59:25.871Z,9.00
2018-07-11T11:00:36.660Z,9.00
2018-07-11T11:01:27.343Z,9.00
2018-07-11T11:02:28.048Z,10.00
2018-07-11T11:03:28.788Z,10.00
2018-07-11T11:04:29.511Z,10.00
2018-07-11T11:05:30.246Z,9.00
2018-07-11T11:06:30.983Z,9.00
2018-07-11T11:07:31.720Z,9.00
2018-07-11T11:08:32.444Z,10.00
2018-07-11T11:09:33.183Z,9.00
2018-07-11T11:10:33.904Z,10.00
2018-07-11T11:11:34.627Z,12.00
2018-07-11T11:12:35.354Z,12.00
2018-07-11T11:13:36.074Z,11.00
2018-07-11T11:14:36.819Z,11.00
2018-07-11T11:15:37.521Z,11.00
2018-07-11T11:16:38.242Z,11.00
2018-07-11T11:17:38.963Z,12.00
2018-07-11T11:18:39.685Z,10.00
2018-07-11T11:19:40.408Z,11.00
2018-07-11T11:20:41.144Z,11.00
2018-07-11T11:21:41.876Z,10.00
2018-07-11T11:22:42.611Z,12.00
2018-07-11T11:23:43.334Z,11.00
2018-07-11T11:24:44.056Z,12.00
2018-07-11T11:25:44.842Z,12.00
2018-07-11T11:26:45.496Z,13.00
2018-07-11T11:27:46.251Z,14.00
2018-07-11T11:28:46.935Z,11.00
2018-07-11T11:29:47.656Z,13.00
2018-07-11T11:30:48.380Z,12.00
2018-07-11T11:31:49.105Z,13.00
2018-07-11T11:32:49.826Z,13.00
2018-07-11T11:33:50.550Z,13.00
2018-07-11T11:34:51.273Z,12.00
2018-07-11T11:35:51.992Z,14.00
2018-07-11T11:36:52.714Z,12.00
2018-07-11T11:37:53.448Z,12.00
2018-07-11T11:38:54.169Z,15.00
2018-07-11T11:39:54.889Z,15.00
2018-07-11T11:40:55.628Z,12.00
2018-07-11T11:41:56.455Z,12.00
2018-07-11T11:42:57.135Z,12.00
2018-07-11T11:43:57.787Z,11.00
2018-07-11T11:44:58.508Z,12.00
2018-07-11T11:45:59.229Z,14.00
2018-07-11T11:46:59.963Z,13.00
2018-07-11T11:48:00.684Z,12.00
2018-07-11T11:49:01.406Z,13.00
2018-07-11T11:50:02.129Z,14.00
2018-07-11T11:51:02.867Z,12.00
2018-07-11T11:52:03.601Z,11.00
2018-07-11T11:53:04.337Z,11.00
2018-07-11T11:54:05.061Z,12.00
2018-07-11T11:55:05.806Z,12.00
2018-07-11T11:56:06.520Z,11.00
2018-07-11T11:57:07.292Z,11.00
2018-07-11T11:58:08.013Z,12.00
2018-07-11T11:59:08.746Z,9.00
2018-07-11T12:00:09.468Z,14.00
2018-07-11T12:01:10.191Z,12.00
2018-07-11T12:02:10.915Z,10.00
2018-07-11T12:03:11.650Z,11.00
2018-07-11T12:04:12.370Z,11.00
2018-07-11T12:05:13.104Z,10.00
2018-07-11T12:06:13.826Z,12.00
2018-07-11T12:07:14.594Z,13.00
2018-07-11T12:08:15.272Z,11.00
2018-07-11T12:09:15.993Z,10.00
2018-07-11T12:10:16.714Z,11.00
2018-07-11T12:11:17.436Z,10.00
2018-07-11T12:12:18.173Z,12.00
2018-07-11T12:13:18.894Z,11.00
2018-07-11T12:14:19.615Z,11.00
2018-07-11T12:15:20.351Z,13.00
2018-07-11T12:16:21.077Z,11.00
2018-07-11T12:17:21.795Z,11.00
2018-07-11T12:18:22.519Z,11.00
2018-07-11T12:19:23.252Z,13.00
2018-07-11T12:20:23.976Z,12.00
2018-07-11T12:21:24.703Z,13.00
2018-07-11T12:22:25.425Z,13.00
2018-07-11T12:23:26.155Z,12.00
2018-07-11T12:24:26.878Z,13.00
2018-07-11T12:25:27.614Z,13.00
2018-07-11T12:26:28.342Z,13.00
2018-07-11T12:27:29.059Z,12.00
2018-07-11T12:28:29.782Z,13.00
2018-07-11T12:29:30.520Z,11.00
2018-07-11T12:30:31.238Z,13.00
2018-07-11T12:31:31.961Z,13.00
2018-07-11T12:32:32.697Z,14.00
2018-07-11T12:33:33.488Z,14.00
2018-07-11T12:34:34.143Z,13.00
2018-07-11T12:35:34.866Z,14.00
2018-07-11T12:36:35.589Z,13.00
2018-07-11T12:37:36.316Z,12.00
2018-07-11T12:38:37.034Z,13.00
2018-07-11T12:39:37.768Z,12.00
2018-07-11T12:40:38.492Z,13.00
2018-07-11T12:41:39.215Z,13.00
2018-07-11T12:42:39.938Z,14.00
2018-07-11T12:43:40.685Z,13.00
2018-07-11T12:44:41.398Z,13.00
2018-07-11T12:45:42.122Z,14.00
2018-07-11T12:46:42.845Z,14.00
2018-07-11T12:47:43.565Z,14.00
2018-07-11T12:48:44.286Z,13.00
2018-07-11T12:49:45.007Z,14.00
2018-07-11T12:50:45.728Z,14.00
2018-07-11T12:51:46.463Z,14.00
2018-07-11T12:52:47.184Z,14.00
2018-07-11T12:53:47.903Z,15.00
2018-07-11T12:54:48.639Z,17.00
2018-07-11T12:55:49.359Z,15.00
2018-07-11T12:56:50.080Z,16.00
2018-07-11T12:57:50.799Z,15.00
2018-07-11T12:58:51.521Z,17.00
2018-07-11T12:59:52.257Z,15.00
2018-07-11T13:00:52.976Z,14.00
2018-07-11T13:01:53.698Z,16.00
2018-07-11T13:02:54.418Z,17.00
2018-07-11T13:03:55.140Z,15.00
2018-07-11T13:04:55.860Z,15.00
2018-07-11T13:05:56.583Z,15.00
2018-07-11T13:06:57.304Z,15.00
2018-07-11T13:07:58.023Z,15.00
2018-07-11T13:08:58.742Z,13.00
2018-07-11T13:09:59.463Z,14.00
2018-07-11T13:11:00.184Z,16.00
2018-07-11T13:12:00.919Z,17.00
2018-07-11T13:13:01.640Z,16.00
2018-07-11T13:14:02.373Z,14.00
2018-07-11T13:15:03.095Z,17.00
2018-07-11T13:16:03.863Z,16.00
2018-07-11T13:17:04.537Z,16.00
2018-07-11T13:18:05.257Z,13.00
2018-07-11T13:19:05.976Z,15.00